CW2798 Aduanas ES current weather conditions

sailwx.info

Wind from 158 at 5 knots gusting 9

Air temperature 29.4° C
Dewpoint 21.1° C

Last reported at 2014-Sep-01 12:30 UTC.
Time now 2014-Sep-01 13:45 UTC

Location: N 38°48' E 000°11'.
View on Google Maps.

See reports from other nearby stations

  
Tides and Currents Weather Stations Pressure Air Temp Water Temp Dewpoint Dewpoint Depression Visibility Wind Speed Wind Dir Waves Ship Positions
date/time (UTC)wind fromknots sea level pressurealtimeterstation pressurevisibilityair tempwater tempwave heightnotes
2014-Sep-01 12:30 158 5 gusting 9 29.4
2014-Sep-01 12:15 151 6 gusting 8 28.9
2014-Sep-01 12:00 178 5 gusting 9 28.9
2014-Sep-01 11:15 163 6 gusting 11 28.3
2014-Sep-01 11:00 151 6 gusting 12 27.8
2014-Sep-01 10:45 151 6 gusting 12 27.8
2014-Sep-01 10:30 145 6 gusting 9 27.8
2014-Sep-01 10:15 154 6 gusting 9 27.8
2014-Sep-01 09:15 097 1 gusting 4 27.8
2014-Sep-01 09:00 090 1 gusting 3 27.8
2014-Sep-01 08:45 123 0 gusting 1 27.2
2014-Sep-01 08:15 157 0 gusting 1 27.2
2014-Sep-01 07:45 26.7
2014-Sep-01 07:30 26.1
2014-Sep-01 06:45 253 23.3
2014-Sep-01 06:00 23.3
2014-Sep-01 04:30 254 1 gusting 2 22.2
2014-Sep-01 04:15 22.8
2014-Sep-01 04:00 22.8
2014-Sep-01 03:45 253 22.8
2014-Sep-01 03:30 22.8
2014-Sep-01 03:15 254 0 gusting 2 22.8
2014-Sep-01 02:45 23.3
2014-Sep-01 02:30 23.3
2014-Sep-01 02:00 22.8
2014-Sep-01 01:45 23.3
2014-Sep-01 01:30 23.3
2014-Sep-01 01:15 254 23.3
2014-Sep-01 00:45 24.4
2014-Sep-01 00:30 24.4
2014-Sep-01 00:00 253 0 gusting 2 24.4
2014-Aug-31 23:45 253 0 gusting 2 24.4
2014-Aug-31 23:30 253 0 gusting 2 24.4
2014-Aug-31 23:15 253 2 gusting 2 25.0
2014-Aug-31 23:00 270 2 gusting 4 25.0
2014-Aug-31 22:30 257 4 gusting 6 25.0
2014-Aug-31 22:15 266 4 gusting 6 25.0
2014-Aug-31 22:00 254 3 gusting 6 25.0
2014-Aug-31 21:15 257 3 gusting 5 25.0
2014-Aug-31 20:45 254 2 gusting 4 25.0
2014-Aug-31 20:30 256 1 gusting 4 25.6
2014-Aug-31 20:15 234 2 gusting 2 25.6
2014-Aug-31 20:00 231 2 gusting 4 25.6
2014-Aug-31 19:45 225 2 gusting 2 25.6
2014-Aug-31 19:30 229 1 gusting 2 25.6
2014-Aug-31 19:15 215 3 gusting 5 25.6
2014-Aug-31 19:00 219 2 gusting 6 26.1
2014-Aug-31 18:45 213 3 gusting 6 26.1
2014-Aug-31 18:30 229 2 gusting 6 26.1
2014-Aug-31 18:15 192 3 gusting 7 26.1
2014-Aug-31 18:00 215 3 gusting 5 26.7
2014-Aug-31 17:15 137 3 gusting 7 26.7
2014-Aug-31 17:00 143 3 gusting 6 26.7
2014-Aug-31 16:45 138 4 gusting 8 26.7
2014-Aug-31 16:30 141 3 gusting 6 26.7
2014-Aug-31 16:00 156 5 gusting 9 27.2
2014-Aug-31 15:45 143 3 gusting 6 27.8
2014-Aug-31 15:30 135 3 gusting 6 27.2
2014-Aug-31 15:15 133 4 gusting 7 27.2
2014-Aug-31 14:15 095 2 gusting 6 27.8
2014-Aug-31 14:00 123 3 gusting 6 27.2
2014-Aug-31 13:30 091 4 gusting 6 26.7
2014-Aug-31 13:15 089 5 gusting 8 26.7
2014-Aug-31 13:00 083 4 gusting 7 26.7
2014-Aug-31 11:30 088 3 gusting 9 27.2
2014-Aug-31 11:15 090 3 gusting 6 26.7
2014-Aug-31 11:00 046 4 gusting 7 26.7
2014-Aug-31 10:45 053 5 gusting 9 26.7
2014-Aug-31 10:15 027 3 gusting 6 26.7
2014-Aug-31 09:45 077 2 gusting 5 26.7
2014-Aug-31 09:00 082 4 gusting 6 26.1
2014-Aug-31 08:45 021 4 gusting 9 26.1
2014-Aug-31 08:15 037 3 gusting 6 25.6
2014-Aug-31 07:45 011 3 gusting 3 25.6
2014-Aug-31 07:15 009 1 gusting 4 25.0
2014-Aug-31 07:00 315 24.4
2014-Aug-31 06:45 259 1 gusting 3 23.9
2014-Aug-31 06:30 23.9
2014-Aug-31 06:00 265 0 gusting 1 23.3
2014-Aug-31 05:45 265 0 gusting 2 23.3
2014-Aug-31 05:30 23.3
2014-Aug-31 04:30 279 1 gusting 5 23.9
2014-Aug-31 04:15 303 1 gusting 3 24.4
2014-Aug-31 03:45 24.4
2014-Aug-31 03:30 350 1 gusting 4 24.4
2014-Aug-31 03:00 326 4 gusting 7 24.4
2014-Aug-31 02:45 337 3 gusting 7 24.4
2014-Aug-31 01:45 332 3 gusting 6 24.4
2014-Aug-31 01:30 335 3 gusting 7 24.4
2014-Aug-31 01:15 349 3 gusting 5 24.4
2014-Aug-31 00:45 344 2 gusting 6 25.0
2014-Aug-31 00:15 323 1 gusting 5 25.0
2014-Aug-31 00:00 003 0 gusting 7 25.0
2014-Aug-30 23:45 351 2 gusting 6 25.0
2014-Aug-30 23:30 358 1 gusting 4 25.0
2014-Aug-30 23:15 355 0 gusting 3 25.0
2014-Aug-30 22:30 25.0
2014-Aug-30 22:00 25.0
2014-Aug-30 21:45 25.0
2014-Aug-30 20:30 036 0 gusting 3 25.6
2014-Aug-30 20:15 050 0 gusting 3 25.6
2014-Aug-30 20:00 052 1 gusting 4 25.6
2014-Aug-30 19:45 042 1 gusting 5 25.6
2014-Aug-30 19:30 050 3 gusting 6 25.6
2014-Aug-30 19:15 059 2 gusting 5 25.6
2014-Aug-30 18:45 066 2 gusting 6 25.6
2014-Aug-30 18:30 025 3 gusting 6 26.1
2014-Aug-30 18:15 050 2 gusting 8 26.1
2014-Aug-30 18:00 051 3 gusting 6 26.1
2014-Aug-30 17:45 046 4 gusting 6 26.1
2014-Aug-30 17:15 082 3 gusting 6 26.7
2014-Aug-30 17:00 055 3 gusting 6 26.7
2014-Aug-30 16:30 077 4 gusting 9 26.7
2014-Aug-30 16:15 090 5 gusting 9 26.7
2014-Aug-30 15:15 070 5 gusting 11 26.7
2014-Aug-30 15:00 074 4 gusting 9 27.8
2014-Aug-30 14:30 068 6 gusting 11 27.2
2014-Aug-30 14:15 073 6 gusting 9 27.2
2014-Aug-30 14:00 071 5 gusting 10 27.2